sensor_id;sensor_type;location;lat;lon;timestamp;temperature;humidity
70550;DHT22;58101;48.658;2.328;2023-09-19T00:00:20;16.60;99.90
70550;DHT22;58101;48.658;2.328;2023-09-19T00:02:58;16.70;99.90
70550;DHT22;58101;48.658;2.328;2023-09-19T00:05:28;16.70;99.90
70550;DHT22;58101;48.658;2.328;2023-09-19T00:07:56;16.70;99.90
70550;DHT22;58101;48.658;2.328;2023-09-19T00:10:27;16.70;99.80
70550;DHT22;58101;48.658;2.328;2023-09-19T00:12:59;16.70;99.80
70550;DHT22;58101;48.658;2.328;2023-09-19T00:15:26;16.70;99.60
70550;DHT22;58101;48.658;2.328;2023-09-19T00:17:54;16.80;99.40
70550;DHT22;58101;48.658;2.328;2023-09-19T00:20:20;16.80;99.90
70550;DHT22;58101;48.658;2.328;2023-09-19T00:22:49;16.80;99.90
70550;DHT22;58101;48.658;2.328;2023-09-19T00:25:15;16.80;99.90
70550;DHT22;58101;48.658;2.328;2023-09-19T00:27:42;16.80;99.90
70550;DHT22;58101;48.658;2.328;2023-09-19T00:30:11;16.80;99.90
70550;DHT22;58101;48.658;2.328;2023-09-19T00:32:45;16.80;99.90
70550;DHT22;58101;48.658;2.328;2023-09-19T00:35:13;16.80;99.90
70550;DHT22;58101;48.658;2.328;2023-09-19T00:37:41;16.70;99.80
70550;DHT22;58101;48.658;2.328;2023-09-19T00:40:07;16.80;99.90
70550;DHT22;58101;48.658;2.328;2023-09-19T00:42:42;16.70;99.90
70550;DHT22;58101;48.658;2.328;2023-09-19T00:45:09;16.60;99.90
70550;DHT22;58101;48.658;2.328;2023-09-19T00:47:59;16.70;99.90
70550;DHT22;58101;48.658;2.328;2023-09-19T00:50:24;16.70;99.90
70550;DHT22;58101;48.658;2.328;2023-09-19T00:52:54;16.60;99.90
70550;DHT22;58101;48.658;2.328;2023-09-19T00:55:21;16.60;99.90
70550;DHT22;58101;48.658;2.328;2023-09-19T00:57:48;16.60;99.90
70550;DHT22;58101;48.658;2.328;2023-09-19T01:00:15;16.60;99.90
70550;DHT22;58101;48.658;2.328;2023-09-19T01:02:42;16.60;99.90
70550;DHT22;58101;48.658;2.328;2023-09-19T01:05:09;16.60;99.90
70550;DHT22;58101;48.658;2.328;2023-09-19T01:07:36;16.60;99.90
70550;DHT22;58101;48.658;2.328;2023-09-19T01:10:06;16.50;99.90
70550;DHT22;58101;48.658;2.328;2023-09-19T01:18:20;16.30;99.90
70550;DHT22;58101;48.658;2.328;2023-09-19T01:20:53;16.30;99.90
70550;DHT22;58101;48.658;2.328;2023-09-19T01:32:02;16.10;99.90
70550;DHT22;58101;48.658;2.328;2023-09-19T01:34:46;16.10;99.90
70550;DHT22;58101;48.658;2.328;2023-09-19T01:37:13;16.10;99.90
70550;DHT22;58101;48.658;2.328;2023-09-19T01:47:38;15.80;99.90
70550;DHT22;58101;48.658;2.328;2023-09-19T01:53:07;15.80;99.90
70550;DHT22;58101;48.658;2.328;2023-09-19T01:55:45;15.80;99.90
70550;DHT22;58101;48.658;2.328;2023-09-19T02:00:50;15.70;99.90
70550;DHT22;58101;48.658;2.328;2023-09-19T02:03:17;15.70;99.90
70550;DHT22;58101;48.658;2.328;2023-09-19T02:05:49;15.80;99.90
70550;DHT22;58101;48.658;2.328;2023-09-19T02:08:17;15.80;99.90
70550;DHT22;58101;48.658;2.328;2023-09-19T02:10:44;15.70;99.90
70550;DHT22;58101;48.658;2.328;2023-09-19T02:13:16;15.70;99.90
70550;DHT22;58101;48.658;2.328;2023-09-19T02:15:42;15.60;99.90
70550;DHT22;58101;48.658;2.328;2023-09-19T02:18:09;15.60;99.90
70550;DHT22;58101;48.658;2.328;2023-09-19T02:20:35;15.60;99.90
70550;DHT22;58101;48.658;2.328;2023-09-19T02:23:00;15.50;99.90
70550;DHT22;58101;48.658;2.328;2023-09-19T02:25:28;15.40;99.90
70550;DHT22;58101;48.658;2.328;2023-09-19T02:27:53;15.40;99.90
70550;DHT22;58101;48.658;2.328;2023-09-19T02:30:19;15.20;99.90
70550;DHT22;58101;48.658;2.328;2023-09-19T02:32:48;15.30;99.90
70550;DHT22;58101;48.658;2.328;2023-09-19T02:35:14;15.30;99.90
70550;DHT22;58101;48.658;2.328;2023-09-19T02:37:45;15.30;99.90
70550;DHT22;58101;48.658;2.328;2023-09-19T02:40:11;15.20;99.90
70550;DHT22;58101;48.658;2.328;2023-09-19T02:42:48;15.20;99.90
70550;DHT22;58101;48.658;2.328;2023-09-19T02:45:16;15.20;99.90
70550;DHT22;58101;48.658;2.328;2023-09-19T02:47:44;15.20;99.90
70550;DHT22;58101;48.658;2.328;2023-09-19T02:50:10;15.10;99.90
70550;DHT22;58101;48.658;2.328;2023-09-19T02:52:36;15.10;99.90
70550;DHT22;58101;48.658;2.328;2023-09-19T02:55:03;15.10;99.90
70550;DHT22;58101;48.658;2.328;2023-09-19T02:57:31;15.10;99.90
70550;DHT22;58101;48.658;2.328;2023-09-19T02:59:59;15.10;99.90
70550;DHT22;58101;48.658;2.328;2023-09-19T03:02:25;15.10;99.90
70550;DHT22;58101;48.658;2.328;2023-09-19T03:04:53;15.10;99.90
70550;DHT22;58101;48.658;2.328;2023-09-19T03:07:19;15.10;99.90
70550;DHT22;58101;48.658;2.328;2023-09-19T03:09:44;15.00;99.90
70550;DHT22;58101;48.658;2.328;2023-09-19T03:12:11;15.00;99.90
70550;DHT22;58101;48.658;2.328;2023-09-19T03:14:36;14.90;99.90
70550;DHT22;58101;48.658;2.328;2023-09-19T03:17:02;14.90;99.90
70550;DHT22;58101;48.658;2.328;2023-09-19T03:19:30;14.90;99.90
70550;DHT22;58101;48.658;2.328;2023-09-19T03:21:59;14.90;99.90
70550;DHT22;58101;48.658;2.328;2023-09-19T03:24:24;14.90;99.90
70550;DHT22;58101;48.658;2.328;2023-09-19T03:26:50;14.90;99.90
70550;DHT22;58101;48.658;2.328;2023-09-19T03:29:16;14.90;99.90
70550;DHT22;58101;48.658;2.328;2023-09-19T03:31:42;14.90;99.90
70550;DHT22;58101;48.658;2.328;2023-09-19T03:34:08;14.90;99.90
70550;DHT22;58101;48.658;2.328;2023-09-19T03:36:34;14.90;99.90
70550;DHT22;58101;48.658;2.328;2023-09-19T03:39:00;14.90;99.90
70550;DHT22;58101;48.658;2.328;2023-09-19T03:41:26;14.90;99.90
70550;DHT22;58101;48.658;2.328;2023-09-19T03:43:52;14.90;99.90
70550;DHT22;58101;48.658;2.328;2023-09-19T03:46:18;14.80;99.90
70550;DHT22;58101;48.658;2.328;2023-09-19T03:48:44;14.80;99.90
70550;DHT22;58101;48.658;2.328;2023-09-19T03:51:09;14.80;99.90
70550;DHT22;58101;48.658;2.328;2023-09-19T03:53:36;14.70;99.90
70550;DHT22;58101;48.658;2.328;2023-09-19T03:56:01;14.70;99.90
70550;DHT22;58101;48.658;2.328;2023-09-19T03:58:28;14.80;99.90
70550;DHT22;58101;48.658;2.328;2023-09-19T04:00:57;14.70;99.90
70550;DHT22;58101;48.658;2.328;2023-09-19T04:03:24;14.70;99.90
70550;DHT22;58101;48.658;2.328;2023-09-19T04:05:54;14.60;99.90
70550;DHT22;58101;48.658;2.328;2023-09-19T04:08:21;14.60;99.90
70550;DHT22;58101;48.658;2.328;2023-09-19T04:10:47;14.60;99.90
70550;DHT22;58101;48.658;2.328;2023-09-19T04:13:12;14.40;99.90
70550;DHT22;58101;48.658;2.328;2023-09-19T04:15:38;14.50;99.90
70550;DHT22;58101;48.658;2.328;2023-09-19T04:18:05;14.50;99.90
70550;DHT22;58101;48.658;2.328;2023-09-19T04:20:31;14.50;99.90
70550;DHT22;58101;48.658;2.328;2023-09-19T04:22:57;14.50;99.90
70550;DHT22;58101;48.658;2.328;2023-09-19T04:25:22;14.40;99.90
70550;DHT22;58101;48.658;2.328;2023-09-19T04:27:48;14.40;99.90
70550;DHT22;58101;48.658;2.328;2023-09-19T04:30:14;14.40;99.90
70550;DHT22;58101;48.658;2.328;2023-09-19T04:32:40;14.40;99.90
70550;DHT22;58101;48.658;2.328;2023-09-19T04:35:10;14.40;99.90
70550;DHT22;58101;48.658;2.328;2023-09-19T04:37:40;14.40;99.90
70550;DHT22;58101;48.658;2.328;2023-09-19T04:40:10;14.40;99.90
70550;DHT22;58101;48.658;2.328;2023-09-19T04:42:40;14.50;99.90
70550;DHT22;58101;48.658;2.328;2023-09-19T04:45:06;14.30;99.90
70550;DHT22;58101;48.658;2.328;2023-09-19T04:47:32;14.30;99.90
70550;DHT22;58101;48.658;2.328;2023-09-19T04:49:58;14.30;99.90
70550;DHT22;58101;48.658;2.328;2023-09-19T04:52:24;14.40;99.90
70550;DHT22;58101;48.658;2.328;2023-09-19T04:54:50;14.30;99.90
70550;DHT22;58101;48.658;2.328;2023-09-19T04:57:15;14.20;99.90
70550;DHT22;58101;48.658;2.328;2023-09-19T04:59:41;14.30;99.90
70550;DHT22;58101;48.658;2.328;2023-09-19T05:02:07;14.30;99.90
70550;DHT22;58101;48.658;2.328;2023-09-19T05:04:37;14.30;99.90
70550;DHT22;58101;48.658;2.328;2023-09-19T05:07:04;14.30;99.90
70550;DHT22;58101;48.658;2.328;2023-09-19T05:09:29;14.20;99.90
70550;DHT22;58101;48.658;2.328;2023-09-19T05:11:55;14.20;99.90
70550;DHT22;58101;48.658;2.328;2023-09-19T05:14:22;14.10;99.90
70550;DHT22;58101;48.658;2.328;2023-09-19T05:16:48;14.20;99.90
70550;DHT22;58101;48.658;2.328;2023-09-19T05:19:13;14.20;99.90
70550;DHT22;58101;48.658;2.328;2023-09-19T05:21:39;14.10;99.90
70550;DHT22;58101;48.658;2.328;2023-09-19T05:24:05;14.20;99.90
70550;DHT22;58101;48.658;2.328;2023-09-19T05:26:32;14.10;99.90
70550;DHT22;58101;48.658;2.328;2023-09-19T05:28:58;14.10;99.90
70550;DHT22;58101;48.658;2.328;2023-09-19T05:31:23;14.20;99.90
70550;DHT22;58101;48.658;2.328;2023-09-19T05:33:51;14.00;99.90
70550;DHT22;58101;48.658;2.328;2023-09-19T05:36:17;14.00;99.90
70550;DHT22;58101;48.658;2.328;2023-09-19T05:38:43;14.00;99.90
70550;DHT22;58101;48.658;2.328;2023-09-19T05:41:10;13.90;99.90
70550;DHT22;58101;48.658;2.328;2023-09-19T05:43:39;13.90;99.90
70550;DHT22;58101;48.658;2.328;2023-09-19T05:46:06;14.00;99.90
70550;DHT22;58101;48.658;2.328;2023-09-19T05:48:33;13.80;99.90
70550;DHT22;58101;48.658;2.328;2023-09-19T05:50:59;14.00;99.90
70550;DHT22;58101;48.658;2.328;2023-09-19T05:53:27;14.00;99.90
70550;DHT22;58101;48.658;2.328;2023-09-19T05:55:54;14.00;99.90
70550;DHT22;58101;48.658;2.328;2023-09-19T05:58:20;14.00;99.90
70550;DHT22;58101;48.658;2.328;2023-09-19T06:00:46;14.20;99.90
70550;DHT22;58101;48.658;2.328;2023-09-19T06:03:14;14.10;99.90
70550;DHT22;58101;48.658;2.328;2023-09-19T06:05:40;14.20;99.90
70550;DHT22;58101;48.658;2.328;2023-09-19T06:08:08;14.20;99.90
70550;DHT22;58101;48.658;2.328;2023-09-19T06:10:35;14.20;99.90
70550;DHT22;58101;48.658;2.328;2023-09-19T06:13:02;14.30;99.90
70550;DHT22;58101;48.658;2.328;2023-09-19T06:15:31;14.30;99.90
70550;DHT22;58101;48.658;2.328;2023-09-19T06:17:59;14.30;99.90
70550;DHT22;58101;48.658;2.328;2023-09-19T06:20:25;14.40;99.90
70550;DHT22;58101;48.658;2.328;2023-09-19T06:22:52;14.50;99.90
70550;DHT22;58101;48.658;2.328;2023-09-19T06:25:18;14.50;99.90
70550;DHT22;58101;48.658;2.328;2023-09-19T06:27:52;14.50;99.90
70550;DHT22;58101;48.658;2.328;2023-09-19T06:30:19;14.50;99.90
70550;DHT22;58101;48.658;2.328;2023-09-19T06:32:45;14.50;99.90
70550;DHT22;58101;48.658;2.328;2023-09-19T06:35:14;14.60;99.90
70550;DHT22;58101;48.658;2.328;2023-09-19T06:37:42;14.70;99.90
70550;DHT22;58101;48.658;2.328;2023-09-19T06:40:12;14.80;99.90
70550;DHT22;58101;48.658;2.328;2023-09-19T06:42:43;14.80;99.90
70550;DHT22;58101;48.658;2.328;2023-09-19T06:45:10;14.80;99.90
70550;DHT22;58101;48.658;2.328;2023-09-19T06:47:43;14.80;99.90
70550;DHT22;58101;48.658;2.328;2023-09-19T06:50:08;14.80;99.90
70550;DHT22;58101;48.658;2.328;2023-09-19T06:52:41;14.90;99.90
70550;DHT22;58101;48.658;2.328;2023-09-19T06:55:07;14.90;99.90
70550;DHT22;58101;48.658;2.328;2023-09-19T06:57:35;15.00;99.90
70550;DHT22;58101;48.658;2.328;2023-09-19T07:00:00;15.00;99.90
70550;DHT22;58101;48.658;2.328;2023-09-19T07:02:27;15.10;99.90
70550;DHT22;58101;48.658;2.328;2023-09-19T07:04:52;15.10;99.90
70550;DHT22;58101;48.658;2.328;2023-09-19T07:07:18;15.10;99.90
70550;DHT22;58101;48.658;2.328;2023-09-19T07:09:44;15.00;99.90
70550;DHT22;58101;48.658;2.328;2023-09-19T07:12:09;15.10;99.90
70550;DHT22;58101;48.658;2.328;2023-09-19T07:14:35;15.20;99.90
70550;DHT22;58101;48.658;2.328;2023-09-19T07:17:01;15.20;99.90
70550;DHT22;58101;48.658;2.328;2023-09-19T07:19:27;15.30;99.90
70550;DHT22;58101;48.658;2.328;2023-09-19T07:21:56;15.30;99.90
70550;DHT22;58101;48.658;2.328;2023-09-19T07:24:25;15.50;99.90
70550;DHT22;58101;48.658;2.328;2023-09-19T07:26:54;15.40;99.90
70550;DHT22;58101;48.658;2.328;2023-09-19T07:29:20;15.50;99.90
70550;DHT22;58101;48.658;2.328;2023-09-19T07:31:45;15.60;99.90
70550;DHT22;58101;48.658;2.328;2023-09-19T07:34:12;15.80;99.90
70550;DHT22;58101;48.658;2.328;2023-09-19T07:36:39;16.00;99.90
70550;DHT22;58101;48.658;2.328;2023-09-19T07:39:06;16.20;99.90
70550;DHT22;58101;48.658;2.328;2023-09-19T07:41:33;16.30;99.90
70550;DHT22;58101;48.658;2.328;2023-09-19T07:43:58;16.30;99.90
70550;DHT22;58101;48.658;2.328;2023-09-19T07:46:24;16.40;99.90
70550;DHT22;58101;48.658;2.328;2023-09-19T07:48:51;16.50;99.90
70550;DHT22;58101;48.658;2.328;2023-09-19T07:51:17;16.50;99.90
70550;DHT22;58101;48.658;2.328;2023-09-19T07:53:43;16.60;99.90
70550;DHT22;58101;48.658;2.328;2023-09-19T07:56:09;16.50;99.90
70550;DHT22;58101;48.658;2.328;2023-09-19T07:58:36;16.60;99.90
70550;DHT22;58101;48.658;2.328;2023-09-19T08:01:08;16.70;99.90
70550;DHT22;58101;48.658;2.328;2023-09-19T08:03:34;16.90;99.90
70550;DHT22;58101;48.658;2.328;2023-09-19T08:06:03;17.00;99.90
70550;DHT22;58101;48.658;2.328;2023-09-19T08:08:29;17.20;99.90
70550;DHT22;58101;48.658;2.328;2023-09-19T08:10:56;17.40;98.90
70550;DHT22;58101;48.658;2.328;2023-09-19T08:13:23;17.50;97.70
70550;DHT22;58101;48.658;2.328;2023-09-19T08:15:50;17.70;97.30
70550;DHT22;58101;48.658;2.328;2023-09-19T08:18:16;17.70;94.20
70550;DHT22;58101;48.658;2.328;2023-09-19T08:20:42;17.80;94.10
70550;DHT22;58101;48.658;2.328;2023-09-19T08:23:08;17.70;93.40
70550;DHT22;58101;48.658;2.328;2023-09-19T08:25:34;17.70;94.60
70550;DHT22;58101;48.658;2.328;2023-09-19T08:28:00;17.70;94.40
70550;DHT22;58101;48.658;2.328;2023-09-19T08:30:27;17.60;95.30
70550;DHT22;58101;48.658;2.328;2023-09-19T08:32:59;17.60;94.80
70550;DHT22;58101;48.658;2.328;2023-09-19T08:35:25;17.70;94.40
70550;DHT22;58101;48.658;2.328;2023-09-19T08:37:51;17.80;93.70
70550;DHT22;58101;48.658;2.328;2023-09-19T08:40:17;17.90;91.60
70550;DHT22;58101;48.658;2.328;2023-09-19T08:42:54;18.00;91.70
70550;DHT22;58101;48.658;2.328;2023-09-19T08:45:21;17.80;92.30
70550;DHT22;58101;48.658;2.328;2023-09-19T08:48:12;18.00;91.10
70550;DHT22;58101;48.658;2.328;2023-09-19T08:50:56;18.30;90.50
70550;DHT22;58101;48.658;2.328;2023-09-19T08:56:01;19.30;88.70
70550;DHT22;58101;48.658;2.328;2023-09-19T08:58:33;20.50;79.20
70550;DHT22;58101;48.658;2.328;2023-09-19T09:01:03;21.50;72.80
70550;DHT22;58101;48.658;2.328;2023-09-19T09:03:33;22.90;64.40
70550;DHT22;58101;48.658;2.328;2023-09-19T09:06:00;23.90;56.70
70550;DHT22;58101;48.658;2.328;2023-09-19T09:08:27;25.00;52.80
70550;DHT22;58101;48.658;2.328;2023-09-19T09:10:56;25.70;49.50
70550;DHT22;58101;48.658;2.328;2023-09-19T09:13:23;25.70;48.30
70550;DHT22;58101;48.658;2.328;2023-09-19T09:15:51;25.70;48.10
70550;DHT22;58101;48.658;2.328;2023-09-19T09:18:17;25.50;48.50
70550;DHT22;58101;48.658;2.328;2023-09-19T09:20:43;26.00;47.60
70550;DHT22;58101;48.658;2.328;2023-09-19T09:23:10;26.40;45.50
70550;DHT22;58101;48.658;2.328;2023-09-19T09:25:55;27.40;44.20
70550;DHT22;58101;48.658;2.328;2023-09-19T09:28:24;28.10;41.20
70550;DHT22;58101;48.658;2.328;2023-09-19T09:30:50;27.90;40.10
70550;DHT22;58101;48.658;2.328;2023-09-19T09:33:17;27.70;40.10
70550;DHT22;58101;48.658;2.328;2023-09-19T09:35:57;27.60;40.20
70550;DHT22;58101;48.658;2.328;2023-09-19T09:38:25;27.20;41.00
70550;DHT22;58101;48.658;2.328;2023-09-19T09:40:57;27.20;42.20
70550;DHT22;58101;48.658;2.328;2023-09-19T09:43:36;27.60;42.60
70550;DHT22;58101;48.658;2.328;2023-09-19T09:46:07;27.70;41.20
70550;DHT22;58101;48.658;2.328;2023-09-19T09:49:01;28.10;41.40
70550;DHT22;58101;48.658;2.328;2023-09-19T09:52:06;28.90;39.50
70550;DHT22;58101;48.658;2.328;2023-09-19T09:54:59;30.10;38.00
70550;DHT22;58101;48.658;2.328;2023-09-19T09:57:26;29.70;36.70
70550;DHT22;58101;48.658;2.328;2023-09-19T09:59:58;30.00;36.40
70550;DHT22;58101;48.658;2.328;2023-09-19T10:02:37;29.10;37.40
70550;DHT22;58101;48.658;2.328;2023-09-19T10:07:48;26.80;39.20
70550;DHT22;58101;48.658;2.328;2023-09-19T10:10:37;25.60;42.80
70550;DHT22;58101;48.658;2.328;2023-09-19T10:13:10;25.50;43.10
70550;DHT22;58101;48.658;2.328;2023-09-19T10:15:39;26.40;42.20
70550;DHT22;58101;48.658;2.328;2023-09-19T10:18:10;27.60;42.00
70550;DHT22;58101;48.658;2.328;2023-09-19T10:20:42;27.90;38.80
70550;DHT22;58101;48.658;2.328;2023-09-19T10:23:11;29.10;37.40
70550;DHT22;58101;48.658;2.328;2023-09-19T10:25:41;29.30;36.70
70550;DHT22;58101;48.658;2.328;2023-09-19T10:28:09;29.40;35.90
70550;DHT22;58101;48.658;2.328;2023-09-19T10:30:44;29.00;35.90
70550;DHT22;58101;48.658;2.328;2023-09-19T10:33:11;28.60;34.40
70550;DHT22;58101;48.658;2.328;2023-09-19T10:35:39;28.30;35.70
70550;DHT22;58101;48.658;2.328;2023-09-19T10:38:07;27.90;37.10
70550;DHT22;58101;48.658;2.328;2023-09-19T10:40:35;27.60;37.40
70550;DHT22;58101;48.658;2.328;2023-09-19T10:43:07;27.10;38.90
70550;DHT22;58101;48.658;2.328;2023-09-19T10:45:37;26.40;38.50
70550;DHT22;58101;48.658;2.328;2023-09-19T10:48:05;25.70;40.70
70550;DHT22;58101;48.658;2.328;2023-09-19T10:51:01;25.10;42.70
70550;DHT22;58101;48.658;2.328;2023-09-19T10:56:09;23.80;44.40
70550;DHT22;58101;48.658;2.328;2023-09-19T10:58:43;23.40;45.70
70550;DHT22;58101;48.658;2.328;2023-09-19T11:01:11;22.80;47.00
70550;DHT22;58101;48.658;2.328;2023-09-19T11:03:44;22.50;48.70
70550;DHT22;58101;48.658;2.328;2023-09-19T11:06:14;22.10;49.70
70550;DHT22;58101;48.658;2.328;2023-09-19T11:09:03;21.90;51.10
70550;DHT22;58101;48.658;2.328;2023-09-19T11:30:39;22.20;52.50
70550;DHT22;58101;48.658;2.328;2023-09-19T11:33:28;22.60;51.80
70550;DHT22;58101;48.658;2.328;2023-09-19T11:36:14;22.70;50.60
70550;DHT22;58101;48.658;2.328;2023-09-19T11:43:46;25.00;45.80
70550;DHT22;58101;48.658;2.328;2023-09-19T11:46:11;25.20;45.40
70550;DHT22;58101;48.658;2.328;2023-09-19T11:48:41;25.20;46.20
70550;DHT22;58101;48.658;2.328;2023-09-19T11:51:18;24.70;46.40
70550;DHT22;58101;48.658;2.328;2023-09-19T11:53:46;24.20;47.20
70550;DHT22;58101;48.658;2.328;2023-09-19T11:56:15;24.10;48.50
70550;DHT22;58101;48.658;2.328;2023-09-19T11:58:46;24.00;49.10
70550;DHT22;58101;48.658;2.328;2023-09-19T12:01:16;24.00;49.80
70550;DHT22;58101;48.658;2.328;2023-09-19T12:03:47;23.80;50.10
70550;DHT22;58101;48.658;2.328;2023-09-19T12:06:18;23.60;50.50
70550;DHT22;58101;48.658;2.328;2023-09-19T12:08:44;23.20;50.60
70550;DHT22;58101;48.658;2.328;2023-09-19T12:11:15;22.90;52.10
70550;DHT22;58101;48.658;2.328;2023-09-19T12:13:45;22.50;53.60
70550;DHT22;58101;48.658;2.328;2023-09-19T12:16:19;22.50;54.70
70550;DHT22;58101;48.658;2.328;2023-09-19T12:18:49;22.20;54.80
70550;DHT22;58101;48.658;2.328;2023-09-19T12:21:31;21.80;56.40
70550;DHT22;58101;48.658;2.328;2023-09-19T12:24:18;21.90;57.90
70550;DHT22;58101;48.658;2.328;2023-09-19T12:26:46;22.00;58.00
70550;DHT22;58101;48.658;2.328;2023-09-19T12:29:16;22.00;57.30
70550;DHT22;58101;48.658;2.328;2023-09-19T12:31:56;22.10;57.30
70550;DHT22;58101;48.658;2.328;2023-09-19T12:34:30;22.20;58.10
70550;DHT22;58101;48.658;2.328;2023-09-19T12:37:13;22.30;57.10
70550;DHT22;58101;48.658;2.328;2023-09-19T12:39:53;22.30;58.10
70550;DHT22;58101;48.658;2.328;2023-09-19T12:42:23;22.40;58.10
70550;DHT22;58101;48.658;2.328;2023-09-19T12:44:51;22.60;57.90
70550;DHT22;58101;48.658;2.328;2023-09-19T12:47:22;23.00;57.50
70550;DHT22;58101;48.658;2.328;2023-09-19T12:50:11;23.50;55.00
70550;DHT22;58101;48.658;2.328;2023-09-19T12:52:47;23.80;52.60
70550;DHT22;58101;48.658;2.328;2023-09-19T12:58:11;23.80;52.10
70550;DHT22;58101;48.658;2.328;2023-09-19T13:00:39;23.70;53.90
70550;DHT22;58101;48.658;2.328;2023-09-19T13:06:03;24.60;51.90
70550;DHT22;58101;48.658;2.328;2023-09-19T13:08:38;24.70;49.80
70550;DHT22;58101;48.658;2.328;2023-09-19T13:11:14;24.60;50.30
70550;DHT22;58101;48.658;2.328;2023-09-19T13:13:49;24.40;50.30
70550;DHT22;58101;48.658;2.328;2023-09-19T13:16:15;24.10;50.10
70550;DHT22;58101;48.658;2.328;2023-09-19T13:18:50;24.00;51.40
70550;DHT22;58101;48.658;2.328;2023-09-19T13:21:17;23.50;51.10
70550;DHT22;58101;48.658;2.328;2023-09-19T13:23:53;23.30;50.60
70550;DHT22;58101;48.658;2.328;2023-09-19T13:26:27;23.20;53.20
70550;DHT22;58101;48.658;2.328;2023-09-19T13:28:55;23.10;51.10
70550;DHT22;58101;48.658;2.328;2023-09-19T13:31:21;22.90;52.40
70550;DHT22;58101;48.658;2.328;2023-09-19T13:33:48;22.90;52.70
70550;DHT22;58101;48.658;2.328;2023-09-19T13:36:14;22.80;52.80
70550;DHT22;58101;48.658;2.328;2023-09-19T13:38:42;22.90;53.40
70550;DHT22;58101;48.658;2.328;2023-09-19T13:41:09;23.00;53.20
70550;DHT22;58101;48.658;2.328;2023-09-19T13:43:36;23.00;53.20
70550;DHT22;58101;48.658;2.328;2023-09-19T13:46:02;22.80;53.20
70550;DHT22;58101;48.658;2.328;2023-09-19T13:48:28;22.80;53.10
70550;DHT22;58101;48.658;2.328;2023-09-19T13:50:55;22.70;53.10
70550;DHT22;58101;48.658;2.328;2023-09-19T13:53:21;22.90;52.60
70550;DHT22;58101;48.658;2.328;2023-09-19T13:55:47;22.70;51.90
70550;DHT22;58101;48.658;2.328;2023-09-19T13:58:14;22.70;53.00
70550;DHT22;58101;48.658;2.328;2023-09-19T14:00:40;22.60;52.60
70550;DHT22;58101;48.658;2.328;2023-09-19T14:03:05;22.50;52.80
70550;DHT22;58101;48.658;2.328;2023-09-19T14:05:31;22.50;53.00
70550;DHT22;58101;48.658;2.328;2023-09-19T14:07:57;22.50;53.30
70550;DHT22;58101;48.658;2.328;2023-09-19T14:10:25;22.50;54.50
70550;DHT22;58101;48.658;2.328;2023-09-19T14:12:53;22.40;54.00
70550;DHT22;58101;48.658;2.328;2023-09-19T14:15:18;22.40;55.00
70550;DHT22;58101;48.658;2.328;2023-09-19T14:17:44;22.30;54.90
70550;DHT22;58101;48.658;2.328;2023-09-19T14:20:13;22.20;55.00
70550;DHT22;58101;48.658;2.328;2023-09-19T14:22:39;22.10;55.80
70550;DHT22;58101;48.658;2.328;2023-09-19T14:25:05;22.10;56.00
70550;DHT22;58101;48.658;2.328;2023-09-19T14:27:31;22.00;56.50
70550;DHT22;58101;48.658;2.328;2023-09-19T14:29:57;22.00;57.20
70550;DHT22;58101;48.658;2.328;2023-09-19T14:32:23;22.00;57.80
70550;DHT22;58101;48.658;2.328;2023-09-19T14:34:49;21.90;58.30
70550;DHT22;58101;48.658;2.328;2023-09-19T14:37:15;21.90;58.50
70550;DHT22;58101;48.658;2.328;2023-09-19T14:39:42;21.90;58.00
70550;DHT22;58101;48.658;2.328;2023-09-19T14:42:11;22.00;58.80
70550;DHT22;58101;48.658;2.328;2023-09-19T14:44:36;22.30;58.00
70550;DHT22;58101;48.658;2.328;2023-09-19T14:47:05;22.60;56.60
70550;DHT22;58101;48.658;2.328;2023-09-19T14:49:36;22.60;55.40
70550;DHT22;58101;48.658;2.328;2023-09-19T14:52:07;22.60;56.00
70550;DHT22;58101;48.658;2.328;2023-09-19T14:54:54;22.60;55.60
70550;DHT22;58101;48.658;2.328;2023-09-19T14:57:22;22.60;55.20
70550;DHT22;58101;48.658;2.328;2023-09-19T14:59:54;22.60;56.20
70550;DHT22;58101;48.658;2.328;2023-09-19T15:02:29;22.60;56.20
70550;DHT22;58101;48.658;2.328;2023-09-19T15:04:55;22.50;56.90
70550;DHT22;58101;48.658;2.328;2023-09-19T15:07:20;22.50;55.80
70550;DHT22;58101;48.658;2.328;2023-09-19T15:10:07;22.50;56.30
70550;DHT22;58101;48.658;2.328;2023-09-19T15:12:54;22.50;56.30
70550;DHT22;58101;48.658;2.328;2023-09-19T15:15:24;22.40;56.50
70550;DHT22;58101;48.658;2.328;2023-09-19T15:17:52;22.50;56.30
70550;DHT22;58101;48.658;2.328;2023-09-19T15:20:18;22.60;56.80
70550;DHT22;58101;48.658;2.328;2023-09-19T15:22:47;22.50;56.10
70550;DHT22;58101;48.658;2.328;2023-09-19T15:25:13;22.50;56.00
70550;DHT22;58101;48.658;2.328;2023-09-19T15:27:39;22.30;56.50
70550;DHT22;58101;48.658;2.328;2023-09-19T15:30:07;22.20;57.40
70550;DHT22;58101;48.658;2.328;2023-09-19T15:32:33;22.20;57.40
70550;DHT22;58101;48.658;2.328;2023-09-19T15:34:59;22.20;57.40
70550;DHT22;58101;48.658;2.328;2023-09-19T15:37:24;22.10;57.50
70550;DHT22;58101;48.658;2.328;2023-09-19T15:39:51;22.10;58.10
70550;DHT22;58101;48.658;2.328;2023-09-19T15:42:17;22.10;57.90
70550;DHT22;58101;48.658;2.328;2023-09-19T15:44:42;22.20;58.60
70550;DHT22;58101;48.658;2.328;2023-09-19T15:47:09;22.20;59.10
70550;DHT22;58101;48.658;2.328;2023-09-19T15:49:35;22.20;58.70
70550;DHT22;58101;48.658;2.328;2023-09-19T15:52:01;22.20;59.10
70550;DHT22;58101;48.658;2.328;2023-09-19T15:54:26;22.20;59.40
70550;DHT22;58101;48.658;2.328;2023-09-19T15:56:53;22.20;59.30
70550;DHT22;58101;48.658;2.328;2023-09-19T15:59:20;22.20;59.40
70550;DHT22;58101;48.658;2.328;2023-09-19T16:01:46;22.10;58.80
70550;DHT22;58101;48.658;2.328;2023-09-19T16:04:12;22.10;59.30
70550;DHT22;58101;48.658;2.328;2023-09-19T16:06:38;22.20;59.60
70550;DHT22;58101;48.658;2.328;2023-09-19T16:09:04;22.30;59.50
70550;DHT22;58101;48.658;2.328;2023-09-19T16:11:34;22.30;58.60
70550;DHT22;58101;48.658;2.328;2023-09-19T16:14:01;22.30;58.90
70550;DHT22;58101;48.658;2.328;2023-09-19T16:16:27;22.20;59.60
70550;DHT22;58101;48.658;2.328;2023-09-19T16:19:02;22.10;59.80
70550;DHT22;58101;48.658;2.328;2023-09-19T16:21:33;22.00;60.80
70550;DHT22;58101;48.658;2.328;2023-09-19T16:24:00;21.90;61.60
70550;DHT22;58101;48.658;2.328;2023-09-19T16:26:27;21.90;62.60
70550;DHT22;58101;48.658;2.328;2023-09-19T16:28:56;21.90;62.20
70550;DHT22;58101;48.658;2.328;2023-09-19T16:31:26;21.90;62.00
70550;DHT22;58101;48.658;2.328;2023-09-19T16:33:53;21.90;62.10
70550;DHT22;58101;48.658;2.328;2023-09-19T16:36:20;21.80;62.60
70550;DHT22;58101;48.658;2.328;2023-09-19T16:38:47;21.80;62.40
70550;DHT22;58101;48.658;2.328;2023-09-19T16:41:13;21.70;62.70
70550;DHT22;58101;48.658;2.328;2023-09-19T16:43:40;21.60;63.20
70550;DHT22;58101;48.658;2.328;2023-09-19T16:46:08;21.60;64.10